Belmonte, Brazil
Current Conditions -  °F | °C
As of 7:00 AM on Friday 24 Oct 2014 (Local Time) from SBCH Reporting Station
Clear Clear  
Wind Chill: 64°   Ceiling: Unl
Heat Index: 64°   Visibility: 6mi
Dew Point: 54°   Wind: 7mph
Humidity: 68%   Direction: 120°ESE
Pressure: 29.97"   Gusts: NA
Location:  26.84°S, 53.58°W
Report Text: SBCH 240900Z 12006KT CAVOK 18/12 Q1015
Loading
Personal Weather Stations






























Interactive Weather Map
Tropical Storm Tracking
New forecast layout! Learn more

10-Day Weather Forecast

Advertisements
Track Severe Weather on mobile